sensor_id;sensor_type;location;lat;lon;timestamp;temperature;humidity
7942;HTU21D;4016;50.758;7.150;2022-10-16T00:02:42;14.58;118.99
7942;HTU21D;4016;50.758;7.150;2022-10-16T00:07:42;14.59;118.99
7942;HTU21D;4016;50.758;7.150;2022-10-16T00:12:43;14.62;118.99
7942;HTU21D;4016;50.758;7.150;2022-10-16T00:17:43;14.60;118.99
7942;HTU21D;4016;50.758;7.150;2022-10-16T00:22:43;14.65;118.99
7942;HTU21D;4016;50.758;7.150;2022-10-16T00:27:44;14.60;118.99
7942;HTU21D;4016;50.758;7.150;2022-10-16T00:32:44;14.55;118.99
7942;HTU21D;4016;50.758;7.150;2022-10-16T00:37:44;14.48;118.99
7942;HTU21D;4016;50.758;7.150;2022-10-16T00:42:45;14.42;118.99
7942;HTU21D;4016;50.758;7.150;2022-10-16T00:47:46;14.48;118.99
7942;HTU21D;4016;50.758;7.150;2022-10-16T00:52:50;14.44;118.99
7942;HTU21D;4016;50.758;7.150;2022-10-16T00:57:52;14.50;118.99
7942;HTU21D;4016;50.758;7.150;2022-10-16T01:02:57;14.48;118.99
7942;HTU21D;4016;50.758;7.150;2022-10-16T01:08:15;14.47;118.99
7942;HTU21D;4016;50.758;7.150;2022-10-16T01:13:21;14.53;118.99
7942;HTU21D;4016;50.758;7.150;2022-10-16T01:18:39;14.48;118.99
7942;HTU21D;4016;50.758;7.150;2022-10-16T01:28:57;14.39;118.99
7942;HTU21D;4016;50.758;7.150;2022-10-16T01:34:19;14.37;118.99
7942;HTU21D;4016;50.758;7.150;2022-10-16T01:39:24;14.26;118.99
7942;HTU21D;4016;50.758;7.150;2022-10-16T01:44:29;14.22;118.99
7942;HTU21D;4016;50.758;7.150;2022-10-16T01:49:34;14.30;118.99
7942;HTU21D;4016;50.758;7.150;2022-10-16T01:54:37;14.20;118.99
7942;HTU21D;4016;50.758;7.150;2022-10-16T01:59:43;14.21;118.99
7942;HTU21D;4016;50.758;7.150;2022-10-16T02:04:51;14.21;118.99
7942;HTU21D;4016;50.758;7.150;2022-10-16T02:09:54;14.19;118.99
7942;HTU21D;4016;50.758;7.150;2022-10-16T02:14:55;14.17;118.99
7942;HTU21D;4016;50.758;7.150;2022-10-16T02:19:56;14.23;118.99
7942;HTU21D;4016;50.758;7.150;2022-10-16T02:25:08;14.32;118.99
7942;HTU21D;4016;50.758;7.150;2022-10-16T02:30:20;14.38;118.99
7942;HTU21D;4016;50.758;7.150;2022-10-16T02:35:23;14.35;118.99
7942;HTU21D;4016;50.758;7.150;2022-10-16T02:40:24;14.32;118.99
7942;HTU21D;4016;50.758;7.150;2022-10-16T02:45:25;14.29;118.99
7942;HTU21D;4016;50.758;7.150;2022-10-16T02:50:25;14.40;118.99
7942;HTU21D;4016;50.758;7.150;2022-10-16T02:55:26;14.40;118.99
7942;HTU21D;4016;50.758;7.150;2022-10-16T03:00:27;14.37;118.99
7942;HTU21D;4016;50.758;7.150;2022-10-16T03:05:28;14.43;118.99
7942;HTU21D;4016;50.758;7.150;2022-10-16T03:10:29;14.38;118.99
7942;HTU21D;4016;50.758;7.150;2022-10-16T03:15:29;14.38;118.99
7942;HTU21D;4016;50.758;7.150;2022-10-16T03:20:30;14.45;118.99
7942;HTU21D;4016;50.758;7.150;2022-10-16T03:25:30;14.52;118.99
7942;HTU21D;4016;50.758;7.150;2022-10-16T03:30:31;14.45;118.99
7942;HTU21D;4016;50.758;7.150;2022-10-16T03:35:32;14.57;118.99
7942;HTU21D;4016;50.758;7.150;2022-10-16T03:40:33;14.62;118.99
7942;HTU21D;4016;50.758;7.150;2022-10-16T03:45:33;14.58;118.99
7942;HTU21D;4016;50.758;7.150;2022-10-16T03:50:33;14.63;118.99
7942;HTU21D;4016;50.758;7.150;2022-10-16T03:55:34;14.72;118.99
7942;HTU21D;4016;50.758;7.150;2022-10-16T04:00:35;14.67;118.99
7942;HTU21D;4016;50.758;7.150;2022-10-16T04:05:35;14.89;118.99
7942;HTU21D;4016;50.758;7.150;2022-10-16T04:10:36;15.07;117.64
7942;HTU21D;4016;50.758;7.150;2022-10-16T04:15:36;15.00;118.14
7942;HTU21D;4016;50.758;7.150;2022-10-16T04:20:36;14.99;118.60
7942;HTU21D;4016;50.758;7.150;2022-10-16T04:25:37;14.92;118.99
7942;HTU21D;4016;50.758;7.150;2022-10-16T04:30:38;14.86;118.99
7942;HTU21D;4016;50.758;7.150;2022-10-16T04:35:39;14.80;118.99
7942;HTU21D;4016;50.758;7.150;2022-10-16T04:40:41;14.82;118.99
7942;HTU21D;4016;50.758;7.150;2022-10-16T04:45:42;14.84;118.99
7942;HTU21D;4016;50.758;7.150;2022-10-16T04:50:42;14.79;118.99
7942;HTU21D;4016;50.758;7.150;2022-10-16T04:55:43;14.87;118.99
7942;HTU21D;4016;50.758;7.150;2022-10-16T05:00:44;14.84;118.99
7942;HTU21D;4016;50.758;7.150;2022-10-16T05:05:46;14.84;118.99
7942;HTU21D;4016;50.758;7.150;2022-10-16T05:10:47;14.92;118.99
7942;HTU21D;4016;50.758;7.150;2022-10-16T05:15:47;14.85;118.99
7942;HTU21D;4016;50.758;7.150;2022-10-16T05:20:48;14.77;118.99
7942;HTU21D;4016;50.758;7.150;2022-10-16T05:25:53;14.71;118.99
7942;HTU21D;4016;50.758;7.150;2022-10-16T05:30:54;14.70;118.99
7942;HTU21D;4016;50.758;7.150;2022-10-16T05:35:54;14.62;118.99
7942;HTU21D;4016;50.758;7.150;2022-10-16T05:40:55;14.69;118.99
7942;HTU21D;4016;50.758;7.150;2022-10-16T05:46:03;14.67;118.99
7942;HTU21D;4016;50.758;7.150;2022-10-16T05:51:11;14.70;118.99
7942;HTU21D;4016;50.758;7.150;2022-10-16T05:56:11;14.65;118.99
7942;HTU21D;4016;50.758;7.150;2022-10-16T06:01:17;14.70;118.99
7942;HTU21D;4016;50.758;7.150;2022-10-16T06:06:20;14.65;118.99
7942;HTU21D;4016;50.758;7.150;2022-10-16T06:11:25;14.63;118.99
7942;HTU21D;4016;50.758;7.150;2022-10-16T06:16:26;14.66;118.99
7942;HTU21D;4016;50.758;7.150;2022-10-16T06:21:27;14.65;118.99
7942;HTU21D;4016;50.758;7.150;2022-10-16T06:26:30;14.77;118.99
7942;HTU21D;4016;50.758;7.150;2022-10-16T06:31:30;14.84;118.99
7942;HTU21D;4016;50.758;7.150;2022-10-16T06:36:33;14.80;118.99
7942;HTU21D;4016;50.758;7.150;2022-10-16T06:41:33;14.79;118.99
7942;HTU21D;4016;50.758;7.150;2022-10-16T06:46:34;14.77;118.99
7942;HTU21D;4016;50.758;7.150;2022-10-16T06:51:35;14.79;118.99
7942;HTU21D;4016;50.758;7.150;2022-10-16T06:56:36;14.84;118.99
7942;HTU21D;4016;50.758;7.150;2022-10-16T07:01:37;14.96;118.99
7942;HTU21D;4016;50.758;7.150;2022-10-16T07:06:38;15.01;118.99
7942;HTU21D;4016;50.758;7.150;2022-10-16T07:11:39;15.03;118.99
7942;HTU21D;4016;50.758;7.150;2022-10-16T07:16:40;15.03;118.99
7942;HTU21D;4016;50.758;7.150;2022-10-16T07:21:41;15.12;118.99
7942;HTU21D;4016;50.758;7.150;2022-10-16T07:26:43;15.21;118.99
7942;HTU21D;4016;50.758;7.150;2022-10-16T07:31:44;15.34;118.99
7942;HTU21D;4016;50.758;7.150;2022-10-16T07:36:48;15.39;118.99
7942;HTU21D;4016;50.758;7.150;2022-10-16T07:41:48;15.48;118.99
7942;HTU21D;4016;50.758;7.150;2022-10-16T07:46:49;15.49;118.99
7942;HTU21D;4016;50.758;7.150;2022-10-16T07:51:49;15.49;118.99
7942;HTU21D;4016;50.758;7.150;2022-10-16T07:56:50;15.57;118.99
7942;HTU21D;4016;50.758;7.150;2022-10-16T08:01:50;15.68;118.99
7942;HTU21D;4016;50.758;7.150;2022-10-16T08:06:50;15.68;118.99
7942;HTU21D;4016;50.758;7.150;2022-10-16T08:11:51;15.74;118.99
7942;HTU21D;4016;50.758;7.150;2022-10-16T08:16:52;15.66;118.99
7942;HTU21D;4016;50.758;7.150;2022-10-16T08:21:53;15.73;118.99
7942;HTU21D;4016;50.758;7.150;2022-10-16T08:26:53;15.67;118.99
7942;HTU21D;4016;50.758;7.150;2022-10-16T08:31:54;15.74;118.99
7942;HTU21D;4016;50.758;7.150;2022-10-16T08:36:55;15.85;118.99
7942;HTU21D;4016;50.758;7.150;2022-10-16T08:52:20;15.98;118.77
7942;HTU21D;4016;50.758;7.150;2022-10-16T08:57:22;15.92;118.99
7942;HTU21D;4016;50.758;7.150;2022-10-16T09:02:51;16.01;118.47
7942;HTU21D;4016;50.758;7.150;2022-10-16T09:13:48;16.41;115.55
7942;HTU21D;4016;50.758;7.150;2022-10-16T09:19:19;16.55;115.07
7942;HTU21D;4016;50.758;7.150;2022-10-16T09:24:24;16.73;113.21
7942;HTU21D;4016;50.758;7.150;2022-10-16T09:29:25;16.88;110.49
7942;HTU21D;4016;50.758;7.150;2022-10-16T09:34:34;17.08;107.45
7942;HTU21D;4016;50.758;7.150;2022-10-16T09:39:49;17.26;107.56
7942;HTU21D;4016;50.758;7.150;2022-10-16T09:44:51;17.51;106.01
7942;HTU21D;4016;50.758;7.150;2022-10-16T09:50:21;17.82;103.34
7942;HTU21D;4016;50.758;7.150;2022-10-16T09:55:22;17.99;100.91
7942;HTU21D;4016;50.758;7.150;2022-10-16T10:00:24;17.98;100.26
7942;HTU21D;4016;50.758;7.150;2022-10-16T10:05:26;18.23;96.54
7942;HTU21D;4016;50.758;7.150;2022-10-16T10:10:33;18.21;92.51
7942;HTU21D;4016;50.758;7.150;2022-10-16T10:15:41;18.46;92.27
7942;HTU21D;4016;50.758;7.150;2022-10-16T10:20:41;18.64;91.94
7942;HTU21D;4016;50.758;7.150;2022-10-16T10:31:06;19.08;86.41
7942;HTU21D;4016;50.758;7.150;2022-10-16T10:41:46;19.50;84.71
7942;HTU21D;4016;50.758;7.150;2022-10-16T10:46:56;19.70;85.00
7942;HTU21D;4016;50.758;7.150;2022-10-16T10:52:23;19.86;85.71
7942;HTU21D;4016;50.758;7.150;2022-10-16T11:08:42;20.42;80.65
7942;HTU21D;4016;50.758;7.150;2022-10-16T11:24:30;21.21;76.82
7942;HTU21D;4016;50.758;7.150;2022-10-16T11:29:35;20.99;73.73
7942;HTU21D;4016;50.758;7.150;2022-10-16T11:34:53;20.57;75.72
7942;HTU21D;4016;50.758;7.150;2022-10-16T11:40:05;20.53;80.38
7942;HTU21D;4016;50.758;7.150;2022-10-16T11:45:36;20.51;81.62
7942;HTU21D;4016;50.758;7.150;2022-10-16T11:50:44;20.56;80.95
7942;HTU21D;4016;50.758;7.150;2022-10-16T11:55:46;20.68;81.42
7942;HTU21D;4016;50.758;7.150;2022-10-16T12:01:05;20.74;79.33
7942;HTU21D;4016;50.758;7.150;2022-10-16T12:11:30;20.58;81.41
7942;HTU21D;4016;50.758;7.150;2022-10-16T12:16:31;20.59;79.78
7942;HTU21D;4016;50.758;7.150;2022-10-16T12:21:32;20.70;79.08
7942;HTU21D;4016;50.758;7.150;2022-10-16T12:26:36;20.87;79.87
7942;HTU21D;4016;50.758;7.150;2022-10-16T12:31:43;21.08;77.96
7942;HTU21D;4016;50.758;7.150;2022-10-16T12:36:44;21.25;79.23
7942;HTU21D;4016;50.758;7.150;2022-10-16T12:41:45;21.33;78.11
7942;HTU21D;4016;50.758;7.150;2022-10-16T12:46:45;21.44;74.49
7942;HTU21D;4016;50.758;7.150;2022-10-16T12:51:45;21.40;77.79
7942;HTU21D;4016;50.758;7.150;2022-10-16T13:02:38;21.98;71.65
7942;HTU21D;4016;50.758;7.150;2022-10-16T13:23:21;21.75;78.17
7942;HTU21D;4016;50.758;7.150;2022-10-16T13:28:30;21.75;77.66
7942;HTU21D;4016;50.758;7.150;2022-10-16T13:33:41;21.82;79.85
7942;HTU21D;4016;50.758;7.150;2022-10-16T13:38:42;21.82;79.52
7942;HTU21D;4016;50.758;7.150;2022-10-16T13:43:53;21.88;76.90
7942;HTU21D;4016;50.758;7.150;2022-10-16T13:49:05;21.68;75.14
7942;HTU21D;4016;50.758;7.150;2022-10-16T13:54:09;21.52;74.46
7942;HTU21D;4016;50.758;7.150;2022-10-16T13:59:36;21.49;74.64
7942;HTU21D;4016;50.758;7.150;2022-10-16T14:04:38;21.48;75.76
7942;HTU21D;4016;50.758;7.150;2022-10-16T14:09:39;21.52;76.60
7942;HTU21D;4016;50.758;7.150;2022-10-16T14:14:47;21.51;78.43
7942;HTU21D;4016;50.758;7.150;2022-10-16T14:19:51;21.54;79.34
7942;HTU21D;4016;50.758;7.150;2022-10-16T14:24:51;21.48;80.41
7942;HTU21D;4016;50.758;7.150;2022-10-16T14:35:46;21.48;82.25
7942;HTU21D;4016;50.758;7.150;2022-10-16T14:40:48;21.35;82.98
7942;HTU21D;4016;50.758;7.150;2022-10-16T14:45:54;21.39;84.26
7942;HTU21D;4016;50.758;7.150;2022-10-16T14:50:55;21.32;84.86
7942;HTU21D;4016;50.758;7.150;2022-10-16T14:55:55;21.18;86.51
7942;HTU21D;4016;50.758;7.150;2022-10-16T15:00:56;21.06;88.57
7942;HTU21D;4016;50.758;7.150;2022-10-16T15:05:56;20.99;89.91
7942;HTU21D;4016;50.758;7.150;2022-10-16T15:10:57;20.87;90.86
7942;HTU21D;4016;50.758;7.150;2022-10-16T15:15:57;20.77;92.70
7942;HTU21D;4016;50.758;7.150;2022-10-16T15:20:58;20.71;93.95
7942;HTU21D;4016;50.758;7.150;2022-10-16T15:25:59;20.51;94.33
7942;HTU21D;4016;50.758;7.150;2022-10-16T15:30:59;20.47;95.73
7942;HTU21D;4016;50.758;7.150;2022-10-16T15:36:01;20.29;97.17
7942;HTU21D;4016;50.758;7.150;2022-10-16T15:41:02;20.11;98.31
7942;HTU21D;4016;50.758;7.150;2022-10-16T15:46:05;19.98;99.51
7942;HTU21D;4016;50.758;7.150;2022-10-16T15:51:07;19.90;100.71
7942;HTU21D;4016;50.758;7.150;2022-10-16T15:56:09;19.72;102.18
7942;HTU21D;4016;50.758;7.150;2022-10-16T16:01:10;19.61;103.31
7942;HTU21D;4016;50.758;7.150;2022-10-16T16:06:12;19.53;103.91
7942;HTU21D;4016;50.758;7.150;2022-10-16T16:11:15;19.44;104.73
7942;HTU21D;4016;50.758;7.150;2022-10-16T16:16:16;19.28;105.95
7942;HTU21D;4016;50.758;7.150;2022-10-16T16:21:17;19.23;106.10
7942;HTU21D;4016;50.758;7.150;2022-10-16T16:26:29;19.20;106.21
7942;HTU21D;4016;50.758;7.150;2022-10-16T16:31:34;19.11;106.75
7942;HTU21D;4016;50.758;7.150;2022-10-16T16:36:35;19.00;107.56
7942;HTU21D;4016;50.758;7.150;2022-10-16T16:41:35;18.85;108.32
7942;HTU21D;4016;50.758;7.150;2022-10-16T16:46:36;18.78;108.27
7942;HTU21D;4016;50.758;7.150;2022-10-16T16:51:37;18.67;108.75
7942;HTU21D;4016;50.758;7.150;2022-10-16T16:56:38;18.61;109.03
7942;HTU21D;4016;50.758;7.150;2022-10-16T17:01:39;18.53;109.53
7942;HTU21D;4016;50.758;7.150;2022-10-16T17:06:39;18.46;109.95
7942;HTU21D;4016;50.758;7.150;2022-10-16T17:11:41;18.37;110.43
7942;HTU21D;4016;50.758;7.150;2022-10-16T17:16:43;18.32;111.26
7942;HTU21D;4016;50.758;7.150;2022-10-16T17:21:44;18.21;111.72
7942;HTU21D;4016;50.758;7.150;2022-10-16T17:26:44;18.20;111.00
7942;HTU21D;4016;50.758;7.150;2022-10-16T17:31:48;18.10;111.21
7942;HTU21D;4016;50.758;7.150;2022-10-16T17:36:51;18.08;111.23
7942;HTU21D;4016;50.758;7.150;2022-10-16T17:41:52;18.08;111.23
7942;HTU21D;4016;50.758;7.150;2022-10-16T17:46:53;18.04;111.52
7942;HTU21D;4016;50.758;7.150;2022-10-16T17:51:54;18.03;111.53
7942;HTU21D;4016;50.758;7.150;2022-10-16T17:56:54;17.96;111.64
7942;HTU21D;4016;50.758;7.150;2022-10-16T18:01:55;17.91;112.22
7942;HTU21D;4016;50.758;7.150;2022-10-16T18:06:55;17.82;112.69
7942;HTU21D;4016;50.758;7.150;2022-10-16T18:11:56;17.77;112.95
7942;HTU21D;4016;50.758;7.150;2022-10-16T18:17:00;17.74;113.27
7942;HTU21D;4016;50.758;7.150;2022-10-16T18:22:00;17.68;113.93
7942;HTU21D;4016;50.758;7.150;2022-10-16T18:27:01;17.58;114.61
7942;HTU21D;4016;50.758;7.150;2022-10-16T18:32:01;17.56;115.18
7942;HTU21D;4016;50.758;7.150;2022-10-16T18:37:02;17.53;115.13
7942;HTU21D;4016;50.758;7.150;2022-10-16T18:42:02;17.44;115.60
7942;HTU21D;4016;50.758;7.150;2022-10-16T18:47:02;17.35;116.07
7942;HTU21D;4016;50.758;7.150;2022-10-16T18:52:03;17.25;116.62
7942;HTU21D;4016;50.758;7.150;2022-10-16T18:57:04;17.16;117.26
7942;HTU21D;4016;50.758;7.150;2022-10-16T19:02:04;17.09;117.90
7942;HTU21D;4016;50.758;7.150;2022-10-16T19:07:06;17.23;118.05
7942;HTU21D;4016;50.758;7.150;2022-10-16T19:12:07;17.05;118.80
7942;HTU21D;4016;50.758;7.150;2022-10-16T19:17:07;16.92;118.99
7942;HTU21D;4016;50.758;7.150;2022-10-16T19:22:08;16.76;118.99
7942;HTU21D;4016;50.758;7.150;2022-10-16T19:27:13;16.65;118.99
7942;HTU21D;4016;50.758;7.150;2022-10-16T19:32:13;16.57;118.99
7942;HTU21D;4016;50.758;7.150;2022-10-16T19:37:14;16.42;118.99
7942;HTU21D;4016;50.758;7.150;2022-10-16T19:42:14;16.29;118.99
7942;HTU21D;4016;50.758;7.150;2022-10-16T19:47:14;16.15;118.99
7942;HTU21D;4016;50.758;7.150;2022-10-16T19:52:15;16.10;118.99
7942;HTU21D;4016;50.758;7.150;2022-10-16T19:57:16;15.93;118.99
7942;HTU21D;4016;50.758;7.150;2022-10-16T20:02:16;15.85;118.99
7942;HTU21D;4016;50.758;7.150;2022-10-16T20:07:17;15.69;118.99
7942;HTU21D;4016;50.758;7.150;2022-10-16T20:12:17;15.70;118.99
7942;HTU21D;4016;50.758;7.150;2022-10-16T20:17:17;15.48;118.99
7942;HTU21D;4016;50.758;7.150;2022-10-16T20:22:18;15.33;118.99
7942;HTU21D;4016;50.758;7.150;2022-10-16T20:27:18;15.24;118.99
7942;HTU21D;4016;50.758;7.150;2022-10-16T20:32:18;15.28;118.99
7942;HTU21D;4016;50.758;7.150;2022-10-16T20:37:19;15.23;118.99
7942;HTU21D;4016;50.758;7.150;2022-10-16T20:42:19;15.19;118.99
7942;HTU21D;4016;50.758;7.150;2022-10-16T20:47:20;15.13;118.99
7942;HTU21D;4016;50.758;7.150;2022-10-16T20:52:20;15.12;118.99
7942;HTU21D;4016;50.758;7.150;2022-10-16T20:57:20;15.08;118.99
7942;HTU21D;4016;50.758;7.150;2022-10-16T21:02:21;14.87;118.99
7942;HTU21D;4016;50.758;7.150;2022-10-16T21:07:21;14.74;118.99
7942;HTU21D;4016;50.758;7.150;2022-10-16T21:12:23;14.70;118.99
7942;HTU21D;4016;50.758;7.150;2022-10-16T21:17:23;14.59;118.99
7942;HTU21D;4016;50.758;7.150;2022-10-16T21:22:28;14.50;118.99
7942;HTU21D;4016;50.758;7.150;2022-10-16T21:27:28;14.50;118.99
7942;HTU21D;4016;50.758;7.150;2022-10-16T21:32:28;14.38;118.99
7942;HTU21D;4016;50.758;7.150;2022-10-16T21:37:30;14.32;118.99
7942;HTU21D;4016;50.758;7.150;2022-10-16T21:42:30;14.30;118.99
7942;HTU21D;4016;50.758;7.150;2022-10-16T21:47:30;14.24;118.99
7942;HTU21D;4016;50.758;7.150;2022-10-16T21:52:33;14.12;118.99
7942;HTU21D;4016;50.758;7.150;2022-10-16T21:57:33;14.05;118.99
7942;HTU21D;4016;50.758;7.150;2022-10-16T22:02:35;14.04;118.99
7942;HTU21D;4016;50.758;7.150;2022-10-16T22:07:35;14.11;118.99
7942;HTU21D;4016;50.758;7.150;2022-10-16T22:12:36;14.00;118.99
7942;HTU21D;4016;50.758;7.150;2022-10-16T22:17:36;13.92;118.99
7942;HTU21D;4016;50.758;7.150;2022-10-16T22:22:38;13.85;118.99
7942;HTU21D;4016;50.758;7.150;2022-10-16T22:27:38;13.81;118.99
7942;HTU21D;4016;50.758;7.150;2022-10-16T22:32:39;13.78;118.99
7942;HTU21D;4016;50.758;7.150;2022-10-16T22:37:39;13.75;118.99
7942;HTU21D;4016;50.758;7.150;2022-10-16T22:42:40;13.74;118.99
7942;HTU21D;4016;50.758;7.150;2022-10-16T22:47:40;13.73;118.99
7942;HTU21D;4016;50.758;7.150;2022-10-16T22:52:40;13.75;118.99
7942;HTU21D;4016;50.758;7.150;2022-10-16T22:57:41;13.81;118.99
7942;HTU21D;4016;50.758;7.150;2022-10-16T23:02:41;13.73;118.99
7942;HTU21D;4016;50.758;7.150;2022-10-16T23:07:41;13.66;118.99
7942;HTU21D;4016;50.758;7.150;2022-10-16T23:12:43;13.61;118.99
7942;HTU21D;4016;50.758;7.150;2022-10-16T23:17:45;13.62;118.99
7942;HTU21D;4016;50.758;7.150;2022-10-16T23:22:45;13.55;118.99
7942;HTU21D;4016;50.758;7.150;2022-10-16T23:27:46;13.52;118.99
7942;HTU21D;4016;50.758;7.150;2022-10-16T23:32:46;13.69;118.99
7942;HTU21D;4016;50.758;7.150;2022-10-16T23:37:47;13.68;118.99
7942;HTU21D;4016;50.758;7.150;2022-10-16T23:42:47;13.73;118.99
7942;HTU21D;4016;50.758;7.150;2022-10-16T23:47:47;13.89;118.99
7942;HTU21D;4016;50.758;7.150;2022-10-16T23:52:48;13.96;118.99
7942;HTU21D;4016;50.758;7.150;2022-10-16T23:57:48;14.01;118.99
